Saint-Joseph-De-Beauce, Canada
Current Conditions -  °F | °C
As of 11:00 PM on Tuesday 27 Jan 2015 (Local Time) from CYQB Reporting Station
Snow Showers Snow Showers  
Wind Chill:   Ceiling: 1500
Heat Index: 10°   Visibility: 2mi
Dew Point:   Wind: 5mph
Humidity: 73%   Direction: 60°ENE
Pressure: 29.97"   Gusts: NA
Location:  46.3°N, 70.87°W
Report Text: CYQB 280400Z 06004KT 2SM -SHSN VV015 M12/M16 A2997 RMK SN8 SLP154
Loading
Personal Weather Stations






























Interactive Weather Map New forecast layout! Learn more

10-Day Weather Forecast

Advertisements
Track Severe Weather on mobile